sensor_id;sensor_type;location;lat;lon;timestamp;P1;durP1;ratioP1;P2;durP2;ratioP2
10260;SDS011;5175;42.606;23.388;2023-02-24T00:01:59;10.87;;;8.90;;
10260;SDS011;5175;42.606;23.388;2023-02-24T00:04:29;10.20;;;8.53;;
10260;SDS011;5175;42.606;23.388;2023-02-24T00:06:58;11.13;;;8.30;;
10260;SDS011;5175;42.606;23.388;2023-02-24T00:09:25;12.57;;;8.30;;
10260;SDS011;5175;42.606;23.388;2023-02-24T00:11:54;11.63;;;9.03;;
10260;SDS011;5175;42.606;23.388;2023-02-24T00:14:23;12.10;;;8.67;;
10260;SDS011;5175;42.606;23.388;2023-02-24T00:16:52;11.53;;;8.10;;
10260;SDS011;5175;42.606;23.388;2023-02-24T00:19:21;10.70;;;7.73;;
10260;SDS011;5175;42.606;23.388;2023-02-24T00:21:49;12.80;;;8.80;;
10260;SDS011;5175;42.606;23.388;2023-02-24T00:24:18;14.27;;;8.47;;
10260;SDS011;5175;42.606;23.388;2023-02-24T00:26:45;12.37;;;8.43;;
10260;SDS011;5175;42.606;23.388;2023-02-24T00:29:18;10.10;;;8.47;;
10260;SDS011;5175;42.606;23.388;2023-02-24T00:31:45;13.07;;;9.40;;
10260;SDS011;5175;42.606;23.388;2023-02-24T00:34:22;12.67;;;8.67;;
10260;SDS011;5175;42.606;23.388;2023-02-24T00:36:48;10.60;;;8.50;;
10260;SDS011;5175;42.606;23.388;2023-02-24T00:39:15;9.40;;;8.17;;
10260;SDS011;5175;42.606;23.388;2023-02-24T00:41:43;9.13;;;7.53;;
10260;SDS011;5175;42.606;23.388;2023-02-24T00:44:10;9.77;;;7.20;;
10260;SDS011;5175;42.606;23.388;2023-02-24T00:46:39;11.23;;;8.07;;
10260;SDS011;5175;42.606;23.388;2023-02-24T00:49:09;10.43;;;7.37;;
10260;SDS011;5175;42.606;23.388;2023-02-24T00:51:43;10.53;;;7.77;;
10260;SDS011;5175;42.606;23.388;2023-02-24T00:54:11;10.33;;;7.67;;
10260;SDS011;5175;42.606;23.388;2023-02-24T00:56:39;10.17;;;7.27;;
10260;SDS011;5175;42.606;23.388;2023-02-24T00:59:08;11.17;;;8.10;;
10260;SDS011;5175;42.606;23.388;2023-02-24T01:01:36;10.87;;;7.70;;
10260;SDS011;5175;42.606;23.388;2023-02-24T01:04:03;10.43;;;7.80;;
10260;SDS011;5175;42.606;23.388;2023-02-24T01:06:36;9.43;;;7.23;;
10260;SDS011;5175;42.606;23.388;2023-02-24T01:09:05;11.00;;;7.33;;
10260;SDS011;5175;42.606;23.388;2023-02-24T01:11:36;10.57;;;7.70;;
10260;SDS011;5175;42.606;23.388;2023-02-24T01:14:21;9.07;;;7.30;;
10260;SDS011;5175;42.606;23.388;2023-02-24T01:16:51;10.47;;;6.83;;
10260;SDS011;5175;42.606;23.388;2023-02-24T01:19:19;9.10;;;6.80;;
10260;SDS011;5175;42.606;23.388;2023-02-24T01:21:47;10.03;;;7.07;;
10260;SDS011;5175;42.606;23.388;2023-02-24T01:24:20;8.67;;;6.83;;
10260;SDS011;5175;42.606;23.388;2023-02-24T01:26:47;9.10;;;6.83;;
10260;SDS011;5175;42.606;23.388;2023-02-24T01:29:14;10.50;;;7.20;;
10260;SDS011;5175;42.606;23.388;2023-02-24T01:31:41;9.70;;;7.10;;
10260;SDS011;5175;42.606;23.388;2023-02-24T01:34:08;11.23;;;7.33;;
10260;SDS011;5175;42.606;23.388;2023-02-24T01:36:37;9.10;;;6.73;;
10260;SDS011;5175;42.606;23.388;2023-02-24T01:39:07;9.57;;;6.70;;
10260;SDS011;5175;42.606;23.388;2023-02-24T01:41:37;10.57;;;6.93;;
10260;SDS011;5175;42.606;23.388;2023-02-24T01:44:04;9.40;;;7.03;;
10260;SDS011;5175;42.606;23.388;2023-02-24T01:46:34;8.83;;;6.73;;
10260;SDS011;5175;42.606;23.388;2023-02-24T01:49:04;8.63;;;6.50;;
10260;SDS011;5175;42.606;23.388;2023-02-24T01:51:37;8.93;;;6.77;;
10260;SDS011;5175;42.606;23.388;2023-02-24T01:54:08;8.43;;;7.00;;
10260;SDS011;5175;42.606;23.388;2023-02-24T01:56:38;8.80;;;6.77;;
10260;SDS011;5175;42.606;23.388;2023-02-24T01:59:06;8.97;;;7.13;;
10260;SDS011;5175;42.606;23.388;2023-02-24T02:01:35;9.13;;;7.03;;
10260;SDS011;5175;42.606;23.388;2023-02-24T02:04:08;9.03;;;7.27;;
10260;SDS011;5175;42.606;23.388;2023-02-24T02:06:41;8.93;;;6.73;;
10260;SDS011;5175;42.606;23.388;2023-02-24T02:09:09;11.23;;;7.50;;
10260;SDS011;5175;42.606;23.388;2023-02-24T02:11:40;10.50;;;7.77;;
10260;SDS011;5175;42.606;23.388;2023-02-24T02:14:07;9.13;;;6.80;;
10260;SDS011;5175;42.606;23.388;2023-02-24T02:16:50;8.33;;;6.73;;
10260;SDS011;5175;42.606;23.388;2023-02-24T02:19:39;8.63;;;6.47;;
10260;SDS011;5175;42.606;23.388;2023-02-24T02:25:29;8.93;;;6.37;;
10260;SDS011;5175;42.606;23.388;2023-02-24T02:31:22;10.17;;;6.83;;
10260;SDS011;5175;42.606;23.388;2023-02-24T02:34:12;9.53;;;6.40;;
10260;SDS011;5175;42.606;23.388;2023-02-24T02:36:47;8.20;;;6.40;;
10260;SDS011;5175;42.606;23.388;2023-02-24T02:39:23;9.33;;;6.67;;
10260;SDS011;5175;42.606;23.388;2023-02-24T02:41:58;8.77;;;6.17;;
10260;SDS011;5175;42.606;23.388;2023-02-24T02:44:39;7.93;;;6.00;;
10260;SDS011;5175;42.606;23.388;2023-02-24T02:47:21;9.37;;;6.30;;
10260;SDS011;5175;42.606;23.388;2023-02-24T02:49:53;9.70;;;6.33;;
10260;SDS011;5175;42.606;23.388;2023-02-24T02:52:26;9.03;;;6.03;;
10260;SDS011;5175;42.606;23.388;2023-02-24T02:54:57;10.10;;;6.73;;
10260;SDS011;5175;42.606;23.388;2023-02-24T02:57:29;9.27;;;6.37;;
10260;SDS011;5175;42.606;23.388;2023-02-24T02:59:58;7.77;;;6.00;;
10260;SDS011;5175;42.606;23.388;2023-02-24T03:02:35;7.50;;;5.57;;
10260;SDS011;5175;42.606;23.388;2023-02-24T03:05:07;8.67;;;5.77;;
10260;SDS011;5175;42.606;23.388;2023-02-24T03:07:36;6.87;;;4.93;;
10260;SDS011;5175;42.606;23.388;2023-02-24T03:10:07;10.10;;;5.87;;
10260;SDS011;5175;42.606;23.388;2023-02-24T03:12:42;8.50;;;5.63;;
10260;SDS011;5175;42.606;23.388;2023-02-24T03:15:12;7.40;;;5.27;;
10260;SDS011;5175;42.606;23.388;2023-02-24T03:17:42;8.20;;;5.63;;
10260;SDS011;5175;42.606;23.388;2023-02-24T03:20:15;7.47;;;5.53;;
10260;SDS011;5175;42.606;23.388;2023-02-24T03:22:47;7.17;;;5.57;;
10260;SDS011;5175;42.606;23.388;2023-02-24T03:25:19;6.53;;;5.07;;
10260;SDS011;5175;42.606;23.388;2023-02-24T03:27:50;7.00;;;4.80;;
10260;SDS011;5175;42.606;23.388;2023-02-24T03:30:22;6.90;;;5.13;;
10260;SDS011;5175;42.606;23.388;2023-02-24T03:32:59;5.40;;;4.47;;
10260;SDS011;5175;42.606;23.388;2023-02-24T03:35:32;6.63;;;4.70;;
10260;SDS011;5175;42.606;23.388;2023-02-24T03:38:02;7.60;;;5.17;;
10260;SDS011;5175;42.606;23.388;2023-02-24T03:40:30;6.30;;;5.10;;
10260;SDS011;5175;42.606;23.388;2023-02-24T03:43:00;6.80;;;4.67;;
10260;SDS011;5175;42.606;23.388;2023-02-24T03:45:33;5.97;;;4.50;;
10260;SDS011;5175;42.606;23.388;2023-02-24T03:48:03;5.43;;;4.30;;
10260;SDS011;5175;42.606;23.388;2023-02-24T03:50:32;5.83;;;4.10;;
10260;SDS011;5175;42.606;23.388;2023-02-24T03:53:04;6.20;;;4.10;;
10260;SDS011;5175;42.606;23.388;2023-02-24T03:55:44;5.57;;;4.50;;
10260;SDS011;5175;42.606;23.388;2023-02-24T03:58:25;6.33;;;4.70;;
10260;SDS011;5175;42.606;23.388;2023-02-24T04:00:58;6.13;;;3.90;;
10260;SDS011;5175;42.606;23.388;2023-02-24T04:03:34;6.63;;;4.27;;
10260;SDS011;5175;42.606;23.388;2023-02-24T04:06:10;4.73;;;4.00;;
10260;SDS011;5175;42.606;23.388;2023-02-24T04:08:44;6.53;;;4.37;;
10260;SDS011;5175;42.606;23.388;2023-02-24T04:11:17;5.90;;;4.10;;
10260;SDS011;5175;42.606;23.388;2023-02-24T04:13:50;5.70;;;3.63;;
10260;SDS011;5175;42.606;23.388;2023-02-24T04:16:23;6.07;;;4.00;;
10260;SDS011;5175;42.606;23.388;2023-02-24T04:18:55;5.77;;;4.27;;
10260;SDS011;5175;42.606;23.388;2023-02-24T04:21:26;6.90;;;4.47;;
10260;SDS011;5175;42.606;23.388;2023-02-24T04:23:55;5.37;;;3.90;;
10260;SDS011;5175;42.606;23.388;2023-02-24T04:26:24;5.57;;;4.40;;
10260;SDS011;5175;42.606;23.388;2023-02-24T04:28:52;5.60;;;3.70;;
10260;SDS011;5175;42.606;23.388;2023-02-24T04:31:20;6.20;;;4.17;;
10260;SDS011;5175;42.606;23.388;2023-02-24T04:33:50;5.30;;;3.90;;
10260;SDS011;5175;42.606;23.388;2023-02-24T04:36:17;5.27;;;3.90;;
10260;SDS011;5175;42.606;23.388;2023-02-24T04:38:46;5.57;;;3.50;;
10260;SDS011;5175;42.606;23.388;2023-02-24T04:41:13;6.43;;;4.13;;
10260;SDS011;5175;42.606;23.388;2023-02-24T04:43:45;4.33;;;3.40;;
10260;SDS011;5175;42.606;23.388;2023-02-24T04:46:13;4.30;;;3.30;;
10260;SDS011;5175;42.606;23.388;2023-02-24T04:48:40;4.57;;;3.37;;
10260;SDS011;5175;42.606;23.388;2023-02-24T04:51:07;3.87;;;3.33;;
10260;SDS011;5175;42.606;23.388;2023-02-24T04:53:34;4.80;;;3.50;;
10260;SDS011;5175;42.606;23.388;2023-02-24T04:56:04;5.13;;;3.37;;
10260;SDS011;5175;42.606;23.388;2023-02-24T04:58:33;4.67;;;3.20;;
10260;SDS011;5175;42.606;23.388;2023-02-24T05:01:04;4.77;;;3.30;;
10260;SDS011;5175;42.606;23.388;2023-02-24T05:03:33;3.20;;;2.80;;
10260;SDS011;5175;42.606;23.388;2023-02-24T05:06:00;4.20;;;3.63;;
10260;SDS011;5175;42.606;23.388;2023-02-24T05:08:27;4.33;;;3.20;;
10260;SDS011;5175;42.606;23.388;2023-02-24T05:10:56;4.33;;;3.63;;
10260;SDS011;5175;42.606;23.388;2023-02-24T05:13:27;4.53;;;3.00;;
10260;SDS011;5175;42.606;23.388;2023-02-24T05:15:56;4.40;;;3.27;;
10260;SDS011;5175;42.606;23.388;2023-02-24T05:18:24;3.43;;;3.10;;
10260;SDS011;5175;42.606;23.388;2023-02-24T05:20:55;4.07;;;3.20;;
10260;SDS011;5175;42.606;23.388;2023-02-24T05:23:40;4.00;;;3.13;;
10260;SDS011;5175;42.606;23.388;2023-02-24T05:26:08;4.20;;;3.20;;
10260;SDS011;5175;42.606;23.388;2023-02-24T05:28:38;4.60;;;3.20;;
10260;SDS011;5175;42.606;23.388;2023-02-24T05:31:06;3.40;;;3.00;;
10260;SDS011;5175;42.606;23.388;2023-02-24T05:33:34;3.77;;;3.20;;
10260;SDS011;5175;42.606;23.388;2023-02-24T05:36:02;3.77;;;2.83;;
10260;SDS011;5175;42.606;23.388;2023-02-24T05:38:32;4.20;;;3.33;;
10260;SDS011;5175;42.606;23.388;2023-02-24T05:41:05;3.57;;;3.17;;
10260;SDS011;5175;42.606;23.388;2023-02-24T05:43:33;3.77;;;3.30;;
10260;SDS011;5175;42.606;23.388;2023-02-24T05:46:04;4.63;;;3.63;;
10260;SDS011;5175;42.606;23.388;2023-02-24T05:48:33;5.83;;;3.50;;
10260;SDS011;5175;42.606;23.388;2023-02-24T05:51:00;5.80;;;3.83;;
10260;SDS011;5175;42.606;23.388;2023-02-24T05:53:28;5.50;;;4.60;;
10260;SDS011;5175;42.606;23.388;2023-02-24T05:55:54;6.17;;;4.10;;
10260;SDS011;5175;42.606;23.388;2023-02-24T05:58:26;5.23;;;3.60;;
10260;SDS011;5175;42.606;23.388;2023-02-24T06:00:53;5.60;;;3.77;;
10260;SDS011;5175;42.606;23.388;2023-02-24T06:03:24;4.60;;;3.83;;
10260;SDS011;5175;42.606;23.388;2023-02-24T06:05:55;5.83;;;4.53;;
10260;SDS011;5175;42.606;23.388;2023-02-24T06:08:29;5.20;;;3.70;;
10260;SDS011;5175;42.606;23.388;2023-02-24T06:11:06;8.00;;;4.43;;
10260;SDS011;5175;42.606;23.388;2023-02-24T06:13:34;5.23;;;3.80;;
10260;SDS011;5175;42.606;23.388;2023-02-24T06:16:01;7.53;;;4.30;;
10260;SDS011;5175;42.606;23.388;2023-02-24T06:18:30;5.57;;;4.20;;
10260;SDS011;5175;42.606;23.388;2023-02-24T06:21:00;5.77;;;4.10;;
10260;SDS011;5175;42.606;23.388;2023-02-24T06:23:28;5.60;;;4.47;;
10260;SDS011;5175;42.606;23.388;2023-02-24T06:25:55;5.80;;;4.53;;
10260;SDS011;5175;42.606;23.388;2023-02-24T06:28:26;5.50;;;4.20;;
10260;SDS011;5175;42.606;23.388;2023-02-24T06:30:53;4.83;;;4.33;;
10260;SDS011;5175;42.606;23.388;2023-02-24T06:33:21;6.67;;;4.87;;
10260;SDS011;5175;42.606;23.388;2023-02-24T06:35:52;6.77;;;4.67;;
10260;SDS011;5175;42.606;23.388;2023-02-24T06:38:18;4.87;;;4.23;;
10260;SDS011;5175;42.606;23.388;2023-02-24T06:40:45;5.77;;;4.07;;
10260;SDS011;5175;42.606;23.388;2023-02-24T06:43:16;4.93;;;4.40;;
10260;SDS011;5175;42.606;23.388;2023-02-24T06:45:43;5.60;;;4.37;;
10260;SDS011;5175;42.606;23.388;2023-02-24T06:48:10;6.00;;;4.60;;
10260;SDS011;5175;42.606;23.388;2023-02-24T06:50:37;7.47;;;5.07;;
10260;SDS011;5175;42.606;23.388;2023-02-24T06:53:05;10.17;;;6.27;;
10260;SDS011;5175;42.606;23.388;2023-02-24T06:55:40;9.00;;;6.03;;
10260;SDS011;5175;42.606;23.388;2023-02-24T06:58:12;8.23;;;5.87;;
10260;SDS011;5175;42.606;23.388;2023-02-24T07:00:41;8.20;;;6.00;;
10260;SDS011;5175;42.606;23.388;2023-02-24T07:03:20;12.27;;;6.63;;
10260;SDS011;5175;42.606;23.388;2023-02-24T07:05:49;8.10;;;6.13;;
10260;SDS011;5175;42.606;23.388;2023-02-24T07:08:36;9.07;;;6.27;;
10260;SDS011;5175;42.606;23.388;2023-02-24T07:11:03;9.57;;;6.37;;
10260;SDS011;5175;42.606;23.388;2023-02-24T07:13:32;9.60;;;6.33;;
10260;SDS011;5175;42.606;23.388;2023-02-24T07:16:01;8.07;;;6.10;;
10260;SDS011;5175;42.606;23.388;2023-02-24T07:18:31;8.77;;;6.63;;
10260;SDS011;5175;42.606;23.388;2023-02-24T07:21:00;8.97;;;6.23;;
10260;SDS011;5175;42.606;23.388;2023-02-24T07:23:29;7.93;;;5.57;;
10260;SDS011;5175;42.606;23.388;2023-02-24T07:25:57;7.63;;;5.77;;
10260;SDS011;5175;42.606;23.388;2023-02-24T07:28:24;7.43;;;5.73;;
10260;SDS011;5175;42.606;23.388;2023-02-24T07:30:51;7.43;;;5.57;;
10260;SDS011;5175;42.606;23.388;2023-02-24T07:33:19;8.13;;;5.90;;
10260;SDS011;5175;42.606;23.388;2023-02-24T07:35:50;8.47;;;5.70;;
10260;SDS011;5175;42.606;23.388;2023-02-24T07:38:17;8.33;;;5.93;;
10260;SDS011;5175;42.606;23.388;2023-02-24T07:40:47;9.97;;;6.23;;
10260;SDS011;5175;42.606;23.388;2023-02-24T07:43:16;8.93;;;6.77;;
10260;SDS011;5175;42.606;23.388;2023-02-24T07:45:43;8.20;;;5.93;;
10260;SDS011;5175;42.606;23.388;2023-02-24T07:48:11;8.70;;;6.17;;
10260;SDS011;5175;42.606;23.388;2023-02-24T07:50:39;8.00;;;6.53;;
10260;SDS011;5175;42.606;23.388;2023-02-24T07:53:07;8.73;;;6.50;;
10260;SDS011;5175;42.606;23.388;2023-02-24T07:55:34;9.03;;;6.67;;
10260;SDS011;5175;42.606;23.388;2023-02-24T07:58:01;8.10;;;6.10;;
10260;SDS011;5175;42.606;23.388;2023-02-24T08:00:31;6.43;;;5.37;;
10260;SDS011;5175;42.606;23.388;2023-02-24T08:03:14;8.83;;;6.07;;
10260;SDS011;5175;42.606;23.388;2023-02-24T08:05:40;7.80;;;6.17;;
10260;SDS011;5175;42.606;23.388;2023-02-24T08:08:07;6.93;;;5.90;;
10260;SDS011;5175;42.606;23.388;2023-02-24T08:10:34;5.87;;;5.30;;
10260;SDS011;5175;42.606;23.388;2023-02-24T08:13:04;6.70;;;5.37;;
10260;SDS011;5175;42.606;23.388;2023-02-24T08:15:33;6.80;;;6.03;;
10260;SDS011;5175;42.606;23.388;2023-02-24T08:17:59;11.73;;;6.43;;
10260;SDS011;5175;42.606;23.388;2023-02-24T08:20:26;13.47;;;10.83;;
10260;SDS011;5175;42.606;23.388;2023-02-24T08:23:00;12.63;;;8.03;;
10260;SDS011;5175;42.606;23.388;2023-02-24T08:25:30;10.23;;;7.80;;
10260;SDS011;5175;42.606;23.388;2023-02-24T08:28:00;12.23;;;7.60;;
10260;SDS011;5175;42.606;23.388;2023-02-24T08:30:30;10.50;;;7.00;;
10260;SDS011;5175;42.606;23.388;2023-02-24T08:33:03;12.83;;;9.27;;
10260;SDS011;5175;42.606;23.388;2023-02-24T08:35:32;10.90;;;7.33;;
10260;SDS011;5175;42.606;23.388;2023-02-24T08:38:02;14.00;;;8.00;;
10260;SDS011;5175;42.606;23.388;2023-02-24T08:40:32;12.33;;;8.33;;
10260;SDS011;5175;42.606;23.388;2023-02-24T08:43:15;11.67;;;8.50;;
10260;SDS011;5175;42.606;23.388;2023-02-24T08:45:57;11.40;;;8.10;;
10260;SDS011;5175;42.606;23.388;2023-02-24T08:48:29;11.90;;;8.00;;
10260;SDS011;5175;42.606;23.388;2023-02-24T08:51:02;12.93;;;8.20;;
10260;SDS011;5175;42.606;23.388;2023-02-24T08:53:32;12.33;;;7.73;;
10260;SDS011;5175;42.606;23.388;2023-02-24T08:56:00;13.27;;;9.30;;
10260;SDS011;5175;42.606;23.388;2023-02-24T08:58:33;13.67;;;8.67;;
10260;SDS011;5175;42.606;23.388;2023-02-24T09:01:10;17.37;;;9.90;;
10260;SDS011;5175;42.606;23.388;2023-02-24T09:03:43;14.30;;;9.73;;
10260;SDS011;5175;42.606;23.388;2023-02-24T09:06:11;17.23;;;12.53;;
10260;SDS011;5175;42.606;23.388;2023-02-24T09:08:41;21.00;;;12.97;;
10260;SDS011;5175;42.606;23.388;2023-02-24T09:11:10;16.00;;;12.53;;
10260;SDS011;5175;42.606;23.388;2023-02-24T09:13:40;16.03;;;11.73;;
10260;SDS011;5175;42.606;23.388;2023-02-24T09:16:17;15.20;;;10.33;;
10260;SDS011;5175;42.606;23.388;2023-02-24T09:18:47;15.77;;;10.80;;
10260;SDS011;5175;42.606;23.388;2023-02-24T09:21:34;17.23;;;10.83;;
10260;SDS011;5175;42.606;23.388;2023-02-24T09:24:24;17.80;;;10.97;;
10260;SDS011;5175;42.606;23.388;2023-02-24T09:26:52;15.60;;;10.57;;
10260;SDS011;5175;42.606;23.388;2023-02-24T09:29:23;15.37;;;10.57;;
10260;SDS011;5175;42.606;23.388;2023-02-24T09:32:00;14.83;;;9.50;;
10260;SDS011;5175;42.606;23.388;2023-02-24T09:34:31;11.83;;;9.07;;
10260;SDS011;5175;42.606;23.388;2023-02-24T09:36:59;13.17;;;8.60;;
10260;SDS011;5175;42.606;23.388;2023-02-24T09:39:29;12.30;;;8.83;;
10260;SDS011;5175;42.606;23.388;2023-02-24T09:42:19;13.57;;;8.30;;
10260;SDS011;5175;42.606;23.388;2023-02-24T09:44:59;11.63;;;7.77;;
10260;SDS011;5175;42.606;23.388;2023-02-24T09:47:32;10.83;;;7.83;;
10260;SDS011;5175;42.606;23.388;2023-02-24T09:50:16;10.70;;;7.47;;
10260;SDS011;5175;42.606;23.388;2023-02-24T09:52:55;10.97;;;8.13;;
10260;SDS011;5175;42.606;23.388;2023-02-24T09:55:39;13.90;;;8.43;;
10260;SDS011;5175;42.606;23.388;2023-02-24T09:58:26;10.80;;;7.67;;
10260;SDS011;5175;42.606;23.388;2023-02-24T10:01:17;10.70;;;7.40;;
10260;SDS011;5175;42.606;23.388;2023-02-24T10:03:57;9.17;;;7.20;;
10260;SDS011;5175;42.606;23.388;2023-02-24T10:06:33;10.00;;;7.77;;
10260;SDS011;5175;42.606;23.388;2023-02-24T10:09:06;9.13;;;7.20;;
10260;SDS011;5175;42.606;23.388;2023-02-24T10:11:39;9.30;;;7.23;;
10260;SDS011;5175;42.606;23.388;2023-02-24T10:14:24;11.10;;;7.87;;
10260;SDS011;5175;42.606;23.388;2023-02-24T10:16:54;10.50;;;7.27;;
10260;SDS011;5175;42.606;23.388;2023-02-24T10:19:43;10.23;;;7.73;;
10260;SDS011;5175;42.606;23.388;2023-02-24T10:22:12;11.77;;;8.07;;
10260;SDS011;5175;42.606;23.388;2023-02-24T10:24:55;11.93;;;8.07;;
10260;SDS011;5175;42.606;23.388;2023-02-24T10:27:47;11.37;;;8.53;;
10260;SDS011;5175;42.606;23.388;2023-02-24T10:30:35;12.13;;;8.57;;
10260;SDS011;5175;42.606;23.388;2023-02-24T10:33:18;13.17;;;8.00;;
10260;SDS011;5175;42.606;23.388;2023-02-24T10:35:59;11.17;;;8.30;;
10260;SDS011;5175;42.606;23.388;2023-02-24T10:38:33;12.90;;;8.30;;
10260;SDS011;5175;42.606;23.388;2023-02-24T10:41:00;9.67;;;8.23;;
10260;SDS011;5175;42.606;23.388;2023-02-24T10:43:30;11.90;;;8.87;;
10260;SDS011;5175;42.606;23.388;2023-02-24T10:46:17;14.07;;;8.80;;
10260;SDS011;5175;42.606;23.388;2023-02-24T10:48:50;14.17;;;9.00;;
10260;SDS011;5175;42.606;23.388;2023-02-24T10:51:27;11.53;;;8.47;;
10260;SDS011;5175;42.606;23.388;2023-02-24T10:54:03;12.13;;;9.13;;
10260;SDS011;5175;42.606;23.388;2023-02-24T10:57:06;13.20;;;8.70;;
10260;SDS011;5175;42.606;23.388;2023-02-24T10:59:46;11.87;;;8.90;;
10260;SDS011;5175;42.606;23.388;2023-02-24T11:02:34;11.27;;;8.93;;
10260;SDS011;5175;42.606;23.388;2023-02-24T11:05:20;12.83;;;9.00;;
10260;SDS011;5175;42.606;23.388;2023-02-24T11:08:10;14.37;;;9.27;;
10260;SDS011;5175;42.606;23.388;2023-02-24T11:10:50;13.30;;;9.27;;
10260;SDS011;5175;42.606;23.388;2023-02-24T11:13:30;11.50;;;8.40;;
10260;SDS011;5175;42.606;23.388;2023-02-24T11:16:15;11.83;;;9.20;;
10260;SDS011;5175;42.606;23.388;2023-02-24T11:19:00;19.67;;;9.37;;
10260;SDS011;5175;42.606;23.388;2023-02-24T11:21:27;12.47;;;9.57;;
10260;SDS011;5175;42.606;23.388;2023-02-24T11:23:56;12.43;;;9.43;;
10260;SDS011;5175;42.606;23.388;2023-02-24T11:26:30;12.07;;;9.10;;
10260;SDS011;5175;42.606;23.388;2023-02-24T11:32:00;12.73;;;9.07;;
10260;SDS011;5175;42.606;23.388;2023-02-24T11:34:40;12.63;;;9.40;;
10260;SDS011;5175;42.606;23.388;2023-02-24T11:37:17;10.67;;;8.50;;
10260;SDS011;5175;42.606;23.388;2023-02-24T11:40:00;12.90;;;8.60;;
10260;SDS011;5175;42.606;23.388;2023-02-24T11:42:35;11.30;;;9.33;;
10260;SDS011;5175;42.606;23.388;2023-02-24T11:45:07;11.67;;;9.10;;
10260;SDS011;5175;42.606;23.388;2023-02-24T11:47:46;12.67;;;9.70;;
10260;SDS011;5175;42.606;23.388;2023-02-24T11:50:24;11.37;;;9.80;;
10260;SDS011;5175;42.606;23.388;2023-02-24T11:52:56;12.00;;;9.50;;
10260;SDS011;5175;42.606;23.388;2023-02-24T11:55:29;11.53;;;9.57;;
10260;SDS011;5175;42.606;23.388;2023-02-24T11:58:00;12.90;;;9.87;;
10260;SDS011;5175;42.606;23.388;2023-02-24T12:00:31;12.33;;;9.57;;
10260;SDS011;5175;42.606;23.388;2023-02-24T12:03:02;13.00;;;9.60;;
10260;SDS011;5175;42.606;23.388;2023-02-24T12:05:37;13.33;;;10.47;;
10260;SDS011;5175;42.606;23.388;2023-02-24T12:08:08;12.23;;;9.63;;
10260;SDS011;5175;42.606;23.388;2023-02-24T12:10:45;13.37;;;9.87;;
10260;SDS011;5175;42.606;23.388;2023-02-24T12:13:18;13.00;;;10.30;;
10260;SDS011;5175;42.606;23.388;2023-02-24T12:15:54;13.13;;;10.07;;
10260;SDS011;5175;42.606;23.388;2023-02-24T12:18:29;16.00;;;11.00;;
10260;SDS011;5175;42.606;23.388;2023-02-24T12:20:59;12.53;;;11.03;;
10260;SDS011;5175;42.606;23.388;2023-02-24T12:23:31;13.30;;;10.77;;
10260;SDS011;5175;42.606;23.388;2023-02-24T12:26:06;12.83;;;10.33;;
10260;SDS011;5175;42.606;23.388;2023-02-24T12:28:47;13.60;;;10.90;;
10260;SDS011;5175;42.606;23.388;2023-02-24T12:31:25;13.13;;;10.77;;
10260;SDS011;5175;42.606;23.388;2023-02-24T12:34:04;14.27;;;9.87;;
10260;SDS011;5175;42.606;23.388;2023-02-24T12:39:58;12.53;;;10.80;;
10260;SDS011;5175;42.606;23.388;2023-02-24T12:42:40;14.47;;;10.73;;
10260;SDS011;5175;42.606;23.388;2023-02-24T12:45:14;15.03;;;11.07;;
10260;SDS011;5175;42.606;23.388;2023-02-24T12:47:48;16.07;;;10.87;;
10260;SDS011;5175;42.606;23.388;2023-02-24T12:50:29;13.77;;;10.77;;
10260;SDS011;5175;42.606;23.388;2023-02-24T12:53:05;12.33;;;10.00;;
10260;SDS011;5175;42.606;23.388;2023-02-24T12:55:42;14.00;;;11.20;;
10260;SDS011;5175;42.606;23.388;2023-02-24T12:58:21;15.03;;;10.33;;
10260;SDS011;5175;42.606;23.388;2023-02-24T13:00:57;12.83;;;10.67;;
10260;SDS011;5175;42.606;23.388;2023-02-24T13:06:24;14.33;;;10.80;;
10260;SDS011;5175;42.606;23.388;2023-02-24T13:08:59;14.27;;;11.13;;
10260;SDS011;5175;42.606;23.388;2023-02-24T13:11:36;12.73;;;10.07;;
10260;SDS011;5175;42.606;23.388;2023-02-24T13:14:12;12.57;;;10.83;;
10260;SDS011;5175;42.606;23.388;2023-02-24T13:16:46;12.73;;;10.70;;
10260;SDS011;5175;42.606;23.388;2023-02-24T13:19:17;14.40;;;11.30;;
10260;SDS011;5175;42.606;23.388;2023-02-24T13:22:02;14.10;;;10.77;;
10260;SDS011;5175;42.606;23.388;2023-02-24T13:24:31;14.63;;;10.63;;
10260;SDS011;5175;42.606;23.388;2023-02-24T13:27:06;15.00;;;10.90;;
10260;SDS011;5175;42.606;23.388;2023-02-24T13:29:45;14.27;;;10.97;;
10260;SDS011;5175;42.606;23.388;2023-02-24T13:32:23;12.33;;;10.13;;
10260;SDS011;5175;42.606;23.388;2023-02-24T13:34:53;13.97;;;10.80;;
10260;SDS011;5175;42.606;23.388;2023-02-24T13:37:31;16.13;;;10.80;;
10260;SDS011;5175;42.606;23.388;2023-02-24T13:40:11;12.67;;;11.17;;
10260;SDS011;5175;42.606;23.388;2023-02-24T13:42:54;16.17;;;11.27;;
10260;SDS011;5175;42.606;23.388;2023-02-24T13:45:25;13.63;;;10.67;;
10260;SDS011;5175;42.606;23.388;2023-02-24T13:47:58;13.13;;;10.83;;
10260;SDS011;5175;42.606;23.388;2023-02-24T13:50:39;15.10;;;11.17;;
10260;SDS011;5175;42.606;23.388;2023-02-24T13:53:26;14.27;;;10.93;;
10260;SDS011;5175;42.606;23.388;2023-02-24T13:56:14;15.10;;;10.50;;
10260;SDS011;5175;42.606;23.388;2023-02-24T13:59:08;13.83;;;11.13;;
10260;SDS011;5175;42.606;23.388;2023-02-24T14:01:50;17.73;;;11.33;;
10260;SDS011;5175;42.606;23.388;2023-02-24T14:04:24;13.67;;;10.93;;
10260;SDS011;5175;42.606;23.388;2023-02-24T14:06:54;13.50;;;10.77;;
10260;SDS011;5175;42.606;23.388;2023-02-24T14:09:23;14.43;;;10.87;;
10260;SDS011;5175;42.606;23.388;2023-02-24T14:11:56;14.47;;;10.77;;
10260;SDS011;5175;42.606;23.388;2023-02-24T14:14:26;15.07;;;10.80;;
10260;SDS011;5175;42.606;23.388;2023-02-24T14:16:56;12.97;;;10.17;;
10260;SDS011;5175;42.606;23.388;2023-02-24T14:19:23;16.30;;;10.87;;
10260;SDS011;5175;42.606;23.388;2023-02-24T14:21:51;15.10;;;10.37;;
10260;SDS011;5175;42.606;23.388;2023-02-24T14:24:20;15.10;;;10.83;;
10260;SDS011;5175;42.606;23.388;2023-02-24T14:26:48;13.93;;;10.70;;
10260;SDS011;5175;42.606;23.388;2023-02-24T14:29:18;15.20;;;11.23;;
10260;SDS011;5175;42.606;23.388;2023-02-24T14:31:47;13.00;;;10.80;;
10260;SDS011;5175;42.606;23.388;2023-02-24T14:34:19;13.37;;;10.87;;
10260;SDS011;5175;42.606;23.388;2023-02-24T14:36:47;12.50;;;10.27;;
10260;SDS011;5175;42.606;23.388;2023-02-24T14:39:17;15.57;;;10.80;;
10260;SDS011;5175;42.606;23.388;2023-02-24T14:41:45;14.90;;;10.57;;
10260;SDS011;5175;42.606;23.388;2023-02-24T14:44:17;14.77;;;10.33;;
10260;SDS011;5175;42.606;23.388;2023-02-24T14:46:49;12.73;;;10.67;;
10260;SDS011;5175;42.606;23.388;2023-02-24T14:49:20;12.40;;;10.87;;
10260;SDS011;5175;42.606;23.388;2023-02-24T14:51:49;15.73;;;11.63;;
10260;SDS011;5175;42.606;23.388;2023-02-24T14:54:22;13.57;;;10.47;;
10260;SDS011;5175;42.606;23.388;2023-02-24T14:56:58;15.13;;;12.50;;
10260;SDS011;5175;42.606;23.388;2023-02-24T14:59:27;16.53;;;14.37;;
10260;SDS011;5175;42.606;23.388;2023-02-24T15:01:56;21.80;;;14.97;;
10260;SDS011;5175;42.606;23.388;2023-02-24T15:04:31;17.67;;;14.53;;
10260;SDS011;5175;42.606;23.388;2023-02-24T15:07:00;23.23;;;15.87;;
10260;SDS011;5175;42.606;23.388;2023-02-24T15:09:32;24.67;;;17.53;;
10260;SDS011;5175;42.606;23.388;2023-02-24T15:12:08;25.53;;;17.93;;
10260;SDS011;5175;42.606;23.388;2023-02-24T15:14:38;26.40;;;18.37;;
10260;SDS011;5175;42.606;23.388;2023-02-24T15:17:09;24.10;;;18.60;;
10260;SDS011;5175;42.606;23.388;2023-02-24T15:19:43;25.43;;;18.20;;
10260;SDS011;5175;42.606;23.388;2023-02-24T15:22:20;26.87;;;17.63;;
10260;SDS011;5175;42.606;23.388;2023-02-24T15:24:49;27.67;;;18.57;;
10260;SDS011;5175;42.606;23.388;2023-02-24T15:27:21;30.27;;;19.23;;